createdAt,value
2022-10-16T00:01:12.160Z,74.25
2022-10-16T00:03:40.813Z,70.32
2022-10-16T00:06:08.297Z,65.20
2022-10-16T00:08:35.726Z,70.90
2022-10-16T00:11:09.450Z,73.18
2022-10-16T00:13:38.172Z,69.00
2022-10-16T00:16:06.011Z,67.43
2022-10-16T00:18:32.944Z,70.85
2022-10-16T00:21:08.891Z,72.72
2022-10-16T00:23:36.438Z,68.43
2022-10-16T00:26:07.475Z,73.63
2022-10-16T00:28:35.714Z,69.32
2022-10-16T00:31:10.903Z,71.60
2022-10-16T00:33:38.968Z,67.72
2022-10-16T00:36:07.418Z,75.80
2022-10-16T00:38:34.384Z,65.97
2022-10-16T00:41:01.592Z,68.63
2022-10-16T00:43:47.312Z,72.05
2022-10-16T00:46:31.146Z,69.18
2022-10-16T00:49:11.171Z,68.53
2022-10-16T00:51:41.413Z,73.85
2022-10-16T00:54:16.491Z,74.28
2022-10-16T00:56:44.556Z,72.65
2022-10-16T00:59:26.561Z,72.60
2022-10-16T01:04:21.128Z,78.07
2022-10-16T01:06:58.946Z,71.18
2022-10-16T01:09:32.836Z,77.13
2022-10-16T01:12:13.488Z,69.72
2022-10-16T01:14:56.544Z,72.85
2022-10-16T01:17:29.208Z,70.45
2022-10-16T01:19:58.800Z,71.20
2022-10-16T01:22:34.209Z,71.13
2022-10-16T01:25:05.891Z,74.32
2022-10-16T01:27:37.027Z,76.15
2022-10-16T01:30:25.230Z,76.95
2022-10-16T01:33:02.234Z,74.22
2022-10-16T01:35:35.603Z,72.25
2022-10-16T01:38:20.333Z,76.50
2022-10-16T01:40:53.987Z,74.22
2022-10-16T01:43:26.251Z,76.35
2022-10-16T01:45:53.814Z,81.00
2022-10-16T01:48:22.213Z,82.00
2022-10-16T01:51:02.130Z,80.07
2022-10-16T01:53:29.426Z,76.15
2022-10-16T01:55:58.869Z,76.43
2022-10-16T01:58:28.963Z,69.30
2022-10-16T02:00:56.358Z,79.22
2022-10-16T02:03:23.213Z,75.80
2022-10-16T02:05:58.980Z,75.68
2022-10-16T02:08:29.237Z,74.65
2022-10-16T02:10:57.468Z,74.88
2022-10-16T02:13:35.344Z,76.22
2022-10-16T02:16:02.405Z,75.50
2022-10-16T02:18:31.707Z,74.50
2022-10-16T02:21:15.049Z,72.78
2022-10-16T02:24:07.442Z,69.80
2022-10-16T02:26:46.443Z,80.68
2022-10-16T02:29:17.722Z,74.35
2022-10-16T02:31:50.353Z,75.35
2022-10-16T02:34:18.851Z,73.22
2022-10-16T02:36:47.079Z,80.13
2022-10-16T02:39:15.384Z,76.35
2022-10-16T02:41:42.316Z,80.55
2022-10-16T02:44:09.193Z,71.45
2022-10-16T02:46:35.914Z,76.30
2022-10-16T02:49:02.808Z,71.78
2022-10-16T02:51:29.626Z,74.15
2022-10-16T02:53:56.451Z,77.88
2022-10-16T02:56:23.381Z,82.30
2022-10-16T02:58:50.184Z,83.28
2022-10-16T03:01:17.890Z,79.13
2022-10-16T03:03:44.726Z,78.25
2022-10-16T03:06:12.234Z,79.13
2022-10-16T03:08:39.466Z,75.07
2022-10-16T03:11:06.458Z,75.82
2022-10-16T03:13:33.279Z,75.55
2022-10-16T03:15:59.991Z,88.40
2022-10-16T03:18:26.780Z,85.45
2022-10-16T03:20:53.528Z,76.03
2022-10-16T03:23:20.352Z,81.20
2022-10-16T03:25:48.370Z,81.13
2022-10-16T03:28:15.311Z,81.50
2022-10-16T03:30:42.066Z,85.65
2022-10-16T03:33:08.814Z,86.47
2022-10-16T03:35:35.597Z,86.55
2022-10-16T03:38:02.457Z,85.30
2022-10-16T03:40:29.319Z,89.82
2022-10-16T03:42:58.233Z,91.78
2022-10-16T03:45:25.456Z,92.60
2022-10-16T03:47:52.196Z,90.03
2022-10-16T03:50:18.968Z,90.07
2022-10-16T03:52:45.746Z,94.10
2022-10-16T03:55:12.602Z,94.22
2022-10-16T03:57:39.447Z,98.03
2022-10-16T04:00:07.090Z,102.15
2022-10-16T04:02:33.948Z,97.03
2022-10-16T04:05:00.733Z,89.70
2022-10-16T04:07:27.797Z,95.10
2022-10-16T04:09:54.843Z,98.72
2022-10-16T04:12:21.564Z,102.40
2022-10-16T04:14:48.323Z,96.13
2022-10-16T04:17:15.222Z,97.70
2022-10-16T04:19:41.967Z,98.88
2022-10-16T04:22:08.728Z,99.93
2022-10-16T04:24:35.542Z,103.13
2022-10-16T04:27:02.261Z,109.57
2022-10-16T04:29:29.141Z,113.72
2022-10-16T04:31:56.016Z,110.15
2022-10-16T04:34:22.725Z,102.45
2022-10-16T04:36:50.432Z,102.97
2022-10-16T04:39:17.576Z,108.22
2022-10-16T04:41:44.338Z,93.40
2022-10-16T04:44:11.066Z,107.45
2022-10-16T04:46:37.808Z,108.72
2022-10-16T04:49:04.610Z,104.78
2022-10-16T04:51:31.334Z,102.50
2022-10-16T04:53:58.312Z,104.70
2022-10-16T04:56:25.468Z,107.18
2022-10-16T04:58:52.430Z,106.25
2022-10-16T05:01:19.253Z,104.43
2022-10-16T05:03:46.035Z,107.57
2022-10-16T05:06:12.939Z,100.95
2022-10-16T05:08:39.673Z,107.13
2022-10-16T05:11:06.486Z,105.95
2022-10-16T05:13:33.255Z,100.20
2022-10-16T05:16:00.007Z,108.80
2022-10-16T05:18:26.724Z,106.38
2022-10-16T05:20:53.512Z,105.15
2022-10-16T05:23:20.390Z,103.93
2022-10-16T05:25:54.705Z,92.50
2022-10-16T05:28:21.610Z,99.63
2022-10-16T05:30:48.414Z,100.68
2022-10-16T05:33:15.278Z,105.05
2022-10-16T05:35:42.203Z,98.82
2022-10-16T05:38:08.943Z,96.03
2022-10-16T05:40:36.199Z,96.53
2022-10-16T05:43:02.946Z,99.60
2022-10-16T05:45:29.695Z,100.97
2022-10-16T05:47:56.474Z,99.38
2022-10-16T05:50:23.205Z,103.05
2022-10-16T05:52:49.929Z,101.07
2022-10-16T05:55:16.698Z,97.45
2022-10-16T05:57:43.496Z,91.50
2022-10-16T06:00:11.015Z,92.47
2022-10-16T06:02:37.839Z,101.97
2022-10-16T06:05:04.906Z,99.15
2022-10-16T06:07:36.711Z,97.43
2022-10-16T06:10:05.595Z,94.95
2022-10-16T06:12:32.424Z,97.15
2022-10-16T06:14:59.150Z,93.05
2022-10-16T06:17:26.069Z,95.38
2022-10-16T06:19:53.021Z,97.90
2022-10-16T06:22:19.810Z,94.28
2022-10-16T06:24:47.517Z,93.65
2022-10-16T06:27:14.350Z,96.57
2022-10-16T06:29:41.128Z,94.32
2022-10-16T06:32:07.871Z,90.80
2022-10-16T06:34:37.627Z,91.95
2022-10-16T06:37:04.397Z,96.43
2022-10-16T06:39:31.314Z,90.65
2022-10-16T06:41:58.163Z,86.22
2022-10-16T06:44:24.939Z,98.55
2022-10-16T06:46:52.258Z,89.43
2022-10-16T06:49:23.346Z,89.60
2022-10-16T06:51:50.422Z,85.35
2022-10-16T06:54:17.606Z,84.75
2022-10-16T06:56:44.510Z,84.93
2022-10-16T06:59:11.399Z,91.28
2022-10-16T07:01:38.107Z,85.53
2022-10-16T07:04:04.942Z,81.18
2022-10-16T07:06:34.562Z,91.93
2022-10-16T07:09:04.978Z,83.30
2022-10-16T07:11:32.041Z,85.35
2022-10-16T07:13:58.818Z,94.05
2022-10-16T07:16:28.308Z,83.55
2022-10-16T07:19:01.177Z,83.60
2022-10-16T07:21:37.357Z,84.93
2022-10-16T07:24:06.999Z,81.13
2022-10-16T07:26:36.826Z,77.35
2022-10-16T07:29:04.570Z,80.40
2022-10-16T07:31:31.936Z,75.35
2022-10-16T07:34:00.824Z,74.35
2022-10-16T07:36:27.683Z,72.72
2022-10-16T07:38:57.187Z,76.50
2022-10-16T07:41:26.687Z,74.88
2022-10-16T07:43:55.474Z,79.38
2022-10-16T07:46:24.107Z,83.20
2022-10-16T07:48:51.381Z,82.22
2022-10-16T07:51:20.060Z,76.93
2022-10-16T07:53:47.755Z,74.20
2022-10-16T07:56:15.271Z,80.97
2022-10-16T07:58:42.436Z,80.05
2022-10-16T08:01:11.127Z,81.90
2022-10-16T08:03:38.263Z,81.40
2022-10-16T08:06:05.685Z,83.22
2022-10-16T08:08:32.501Z,84.30
2022-10-16T08:10:59.327Z,85.38
2022-10-16T08:13:27.599Z,86.57
2022-10-16T08:15:55.427Z,80.93
2022-10-16T08:18:22.476Z,77.68
2022-10-16T08:20:49.333Z,87.88
2022-10-16T08:23:16.048Z,79.57
2022-10-16T08:25:43.024Z,81.30
2022-10-16T08:28:11.660Z,85.70
2022-10-16T08:30:38.808Z,77.65
2022-10-16T08:33:06.890Z,80.57
2022-10-16T08:35:33.893Z,78.00
2022-10-16T08:38:00.634Z,75.95
2022-10-16T08:40:32.158Z,85.57
2022-10-16T08:43:16.803Z,81.28
2022-10-16T08:46:37.120Z,76.60
2022-10-16T08:49:04.775Z,76.45
2022-10-16T08:51:37.056Z,77.72
2022-10-16T08:54:12.794Z,84.18
2022-10-16T08:56:39.526Z,76.47
2022-10-16T08:59:12.179Z,77.78
2022-10-16T09:01:42.817Z,77.18
2022-10-16T09:04:31.947Z,79.22
2022-10-16T09:07:13.133Z,79.88
2022-10-16T09:09:59.969Z,76.00
2022-10-16T09:12:46.829Z,73.05
2022-10-16T09:15:46.486Z,77.57
2022-10-16T09:18:32.727Z,79.35
2022-10-16T09:21:19.477Z,80.57
2022-10-16T09:23:46.776Z,76.57
2022-10-16T09:26:15.357Z,79.53
2022-10-16T09:28:42.617Z,74.80
2022-10-16T09:31:18.462Z,75.35
2022-10-16T09:33:49.013Z,78.05
2022-10-16T09:36:16.054Z,84.63
2022-10-16T09:38:42.876Z,90.22
2022-10-16T09:41:22.666Z,78.70
2022-10-16T09:43:58.452Z,81.38
2022-10-16T09:46:30.691Z,78.55
2022-10-16T09:49:00.524Z,74.60
2022-10-16T09:51:27.374Z,79.03
2022-10-16T09:54:21.528Z,72.97
2022-10-16T09:56:52.923Z,72.20
2022-10-16T09:59:21.960Z,76.80
2022-10-16T10:01:54.637Z,77.50
2022-10-16T10:04:23.062Z,76.80
2022-10-16T10:06:58.036Z,71.38
2022-10-16T10:09:45.361Z,75.05
2022-10-16T10:12:30.319Z,79.80
2022-10-16T10:15:22.380Z,75.50
2022-10-16T10:17:50.899Z,73.25
2022-10-16T10:20:23.798Z,78.95
2022-10-16T10:22:52.069Z,76.47
2022-10-16T10:25:40.082Z,79.93
2022-10-16T10:28:19.430Z,77.25
2022-10-16T10:31:18.101Z,86.80
2022-10-16T10:34:05.775Z,82.45
2022-10-16T10:36:38.055Z,78.35
2022-10-16T10:39:35.059Z,79.93
2022-10-16T10:42:14.290Z,80.40
2022-10-16T10:44:59.533Z,85.20
2022-10-16T10:47:41.334Z,84.53
2022-10-16T10:55:21.344Z,78.43
2022-10-16T10:58:00.334Z,80.35
2022-10-16T11:00:45.160Z,84.00
2022-10-16T11:03:11.906Z,77.97
2022-10-16T11:05:44.439Z,81.53
2022-10-16T11:08:30.131Z,75.15
2022-10-16T11:11:01.449Z,81.80
2022-10-16T11:13:44.356Z,86.60
2022-10-16T11:16:39.364Z,83.65
2022-10-16T11:19:12.101Z,82.90
2022-10-16T11:21:51.371Z,90.78
2022-10-16T11:24:45.991Z,87.50
2022-10-16T11:27:18.243Z,85.38
2022-10-16T11:29:57.600Z,83.97
2022-10-16T11:32:36.752Z,86.53
2022-10-16T11:35:20.032Z,89.80
2022-10-16T11:37:49.353Z,81.68
2022-10-16T11:40:26.954Z,91.93
2022-10-16T11:43:03.161Z,85.18
2022-10-16T11:45:35.754Z,92.13
2022-10-16T11:48:25.546Z,88.88
2022-10-16T11:50:59.577Z,87.30
2022-10-16T11:53:47.955Z,81.80
2022-10-16T11:56:20.155Z,84.47
2022-10-16T11:58:53.784Z,85.05
2022-10-16T12:04:04.005Z,75.00
2022-10-16T12:06:45.874Z,85.63
2022-10-16T12:09:22.845Z,82.20
2022-10-16T12:11:49.924Z,76.63
2022-10-16T12:14:16.650Z,74.45
2022-10-16T12:16:59.295Z,80.03
2022-10-16T12:19:28.655Z,84.28
2022-10-16T12:22:01.340Z,75.60
2022-10-16T12:24:43.664Z,79.50
2022-10-16T12:27:33.132Z,71.53
2022-10-16T12:30:02.517Z,76.03
2022-10-16T12:32:47.133Z,75.82
2022-10-16T12:35:27.407Z,69.20
2022-10-16T12:37:55.229Z,67.57
2022-10-16T12:40:29.473Z,73.22
2022-10-16T12:42:56.370Z,72.28
2022-10-16T12:45:35.380Z,72.90
2022-10-16T12:48:05.763Z,69.15
2022-10-16T12:50:38.506Z,77.65
2022-10-16T12:53:23.230Z,67.72
2022-10-16T12:56:05.505Z,67.88
2022-10-16T12:58:59.929Z,65.50
2022-10-16T13:02:02.397Z,68.07
2022-10-16T13:04:52.345Z,71.03
2022-10-16T13:07:37.832Z,67.55
2022-10-16T13:10:29.718Z,60.33
2022-10-16T13:13:11.557Z,65.32
2022-10-16T13:15:55.079Z,62.00
2022-10-16T13:18:36.738Z,56.80
2022-10-16T13:24:23.673Z,56.22
2022-10-16T13:27:14.566Z,58.35
2022-10-16T13:29:42.756Z,57.30
2022-10-16T13:32:13.045Z,61.00
2022-10-16T13:34:49.665Z,58.55
2022-10-16T13:37:24.825Z,53.80
2022-10-16T13:39:51.993Z,55.53
2022-10-16T13:42:28.147Z,61.35
2022-10-16T13:44:57.167Z,60.03
2022-10-16T13:47:31.190Z,59.47
2022-10-16T13:50:15.883Z,56.78
2022-10-16T13:52:42.630Z,69.00
2022-10-16T13:55:12.387Z,55.38
2022-10-16T13:57:39.336Z,54.78
2022-10-16T14:00:19.674Z,58.58
2022-10-16T14:02:51.481Z,54.75
2022-10-16T14:05:18.599Z,54.88
2022-10-16T14:07:51.785Z,60.20
2022-10-16T14:10:23.322Z,53.88
2022-10-16T14:12:58.707Z,56.03
2022-10-16T14:15:25.905Z,55.00
2022-10-16T14:17:53.872Z,51.75
2022-10-16T14:20:26.296Z,52.40
2022-10-16T14:23:24.036Z,53.95
2022-10-16T14:25:50.878Z,55.90
2022-10-16T14:28:20.577Z,55.35
2022-10-16T14:30:55.032Z,51.97
2022-10-16T14:33:34.480Z,56.70
2022-10-16T14:36:12.420Z,60.20
2022-10-16T14:38:41.149Z,52.75
2022-10-16T14:41:08.067Z,55.90
2022-10-16T14:43:40.569Z,55.45
2022-10-16T14:46:17.848Z,55.20
2022-10-16T14:48:50.758Z,54.85
2022-10-16T14:51:18.935Z,56.10
2022-10-16T14:53:48.053Z,53.88
2022-10-16T14:56:26.078Z,60.85
2022-10-16T14:58:53.961Z,60.88
2022-10-16T15:01:21.144Z,55.40
2022-10-16T15:03:48.369Z,56.30
2022-10-16T15:06:16.734Z,57.80
2022-10-16T15:08:46.004Z,59.92
2022-10-16T15:11:18.792Z,55.22
2022-10-16T15:13:46.054Z,56.40
2022-10-16T15:16:15.406Z,57.63
2022-10-16T15:18:42.299Z,57.40
2022-10-16T15:21:09.422Z,58.30
2022-10-16T15:23:36.229Z,59.05
2022-10-16T15:26:03.033Z,52.95
2022-10-16T15:28:29.854Z,54.60
2022-10-16T15:30:58.248Z,60.85
2022-10-16T15:33:37.093Z,53.47
2022-10-16T15:36:06.766Z,51.28
2022-10-16T15:38:33.501Z,58.65
2022-10-16T15:41:00.346Z,54.97
2022-10-16T15:43:27.446Z,53.25
2022-10-16T15:46:10.589Z,50.95
2022-10-16T15:48:37.424Z,50.92
2022-10-16T15:51:08.001Z,53.28
2022-10-16T15:53:35.194Z,52.22
2022-10-16T15:56:10.171Z,50.80
2022-10-16T15:58:37.513Z,53.28
2022-10-16T16:01:05.194Z,57.45
2022-10-16T16:03:35.783Z,60.90
2022-10-16T16:06:12.216Z,71.80
2022-10-16T16:08:39.322Z,62.33
2022-10-16T16:11:07.382Z,55.17
2022-10-16T16:13:34.629Z,54.05
2022-10-16T16:16:01.465Z,55.38
2022-10-16T16:18:29.634Z,51.58
2022-10-16T16:20:56.684Z,55.45
2022-10-16T16:23:23.592Z,53.20
2022-10-16T16:26:12.574Z,53.17
2022-10-16T16:28:40.866Z,49.15
2022-10-16T16:31:08.449Z,52.05
2022-10-16T16:33:35.239Z,52.58
2022-10-16T16:36:04.498Z,62.63
2022-10-16T16:38:32.813Z,58.25
2022-10-16T16:40:59.646Z,54.88
2022-10-16T16:43:29.930Z,60.00
2022-10-16T16:45:56.717Z,61.85
2022-10-16T16:48:23.715Z,60.08
2022-10-16T16:50:50.521Z,62.33
2022-10-16T16:53:17.450Z,61.13
2022-10-16T16:55:44.214Z,59.72
2022-10-16T16:58:11.093Z,63.67
2022-10-16T17:00:37.887Z,64.57
2022-10-16T17:03:04.677Z,63.20
2022-10-16T17:05:31.563Z,67.65
2022-10-16T17:07:58.369Z,67.47
2022-10-16T17:10:25.124Z,66.13
2022-10-16T17:12:56.833Z,66.97
2022-10-16T17:17:50.720Z,71.45
2022-10-16T17:20:17.480Z,74.22
2022-10-16T17:22:45.072Z,71.97
2022-10-16T17:25:14.959Z,74.68
2022-10-16T17:27:41.736Z,68.32
2022-10-16T17:30:12.173Z,70.72
2022-10-16T17:32:38.920Z,75.63
2022-10-16T17:35:06.808Z,75.90
2022-10-16T17:37:33.589Z,73.50
2022-10-16T17:40:00.382Z,71.57
2022-10-16T17:42:27.599Z,70.97
2022-10-16T17:44:54.558Z,73.55
2022-10-16T17:47:21.561Z,74.72
2022-10-16T17:49:48.288Z,79.38
2022-10-16T17:52:15.261Z,76.20
2022-10-16T17:54:42.070Z,73.50
2022-10-16T17:57:08.826Z,78.95
2022-10-16T17:59:35.656Z,79.38
2022-10-16T18:02:02.901Z,74.55
2022-10-16T18:04:29.823Z,72.60
2022-10-16T18:06:56.627Z,75.40
2022-10-16T18:09:23.490Z,82.10
2022-10-16T18:11:55.562Z,80.38
2022-10-16T18:14:22.671Z,88.82
2022-10-16T18:19:22.853Z,79.43
2022-10-16T18:21:49.648Z,77.97
2022-10-16T18:24:18.165Z,81.90
2022-10-16T18:26:45.575Z,78.82
2022-10-16T18:29:13.204Z,80.43
2022-10-16T18:31:42.696Z,79.47
2022-10-16T18:34:10.387Z,84.88
2022-10-16T18:36:37.451Z,77.00
2022-10-16T18:39:09.569Z,77.00
2022-10-16T18:41:41.785Z,81.72
2022-10-16T18:44:13.260Z,80.05
2022-10-16T18:46:40.644Z,83.10
2022-10-16T18:49:10.541Z,84.22
2022-10-16T18:51:40.795Z,80.22
2022-10-16T18:54:10.353Z,77.07
2022-10-16T18:56:37.428Z,89.05
2022-10-16T18:59:06.291Z,77.60
2022-10-16T19:01:35.803Z,84.95
2022-10-16T19:04:06.726Z,81.95
2022-10-16T19:06:36.037Z,84.10
2022-10-16T19:09:04.046Z,86.47
2022-10-16T19:11:31.665Z,84.45
2022-10-16T19:13:58.562Z,83.72
2022-10-16T19:16:31.346Z,93.57
2022-10-16T19:19:00.956Z,84.55
2022-10-16T19:21:30.049Z,85.80
2022-10-16T19:23:59.813Z,81.72
2022-10-16T19:26:31.586Z,87.93
2022-10-16T19:29:06.392Z,85.68
2022-10-16T19:31:34.486Z,89.38
2022-10-16T19:34:03.392Z,86.60
2022-10-16T19:36:32.743Z,82.07
2022-10-16T19:39:02.290Z,88.72
2022-10-16T19:41:30.976Z,85.18
2022-10-16T19:44:05.458Z,85.13
2022-10-16T19:46:33.656Z,82.88
2022-10-16T19:49:06.724Z,81.03
2022-10-16T19:51:33.983Z,77.68
2022-10-16T19:54:04.377Z,86.40
2022-10-16T19:56:32.851Z,83.15
2022-10-16T19:59:02.068Z,83.28
2022-10-16T20:01:31.550Z,84.40
2022-10-16T20:04:00.294Z,86.30
2022-10-16T20:06:29.109Z,86.35
2022-10-16T20:08:58.197Z,83.95
2022-10-16T20:11:30.443Z,88.95
2022-10-16T20:13:57.923Z,87.63
2022-10-16T20:16:26.135Z,86.38
2022-10-16T20:18:53.652Z,88.50
2022-10-16T20:21:26.188Z,89.63
2022-10-16T20:23:53.492Z,95.85
2022-10-16T20:26:28.894Z,86.75
2022-10-16T20:28:55.771Z,90.22
2022-10-16T20:31:27.876Z,87.43
2022-10-16T20:33:56.611Z,90.32
2022-10-16T20:36:26.070Z,93.32
2022-10-16T20:38:53.747Z,88.15
2022-10-16T20:41:20.673Z,83.28
2022-10-16T20:43:48.638Z,90.28
2022-10-16T20:46:18.646Z,86.65
2022-10-16T20:48:47.125Z,82.78
2022-10-16T20:51:16.015Z,86.07
2022-10-16T20:53:44.073Z,81.75
2022-10-16T20:56:12.622Z,89.10
2022-10-16T20:58:41.087Z,94.25
2022-10-16T21:01:17.150Z,88.68
2022-10-16T21:03:44.998Z,85.47
2022-10-16T21:06:12.176Z,93.18
2022-10-16T21:08:40.908Z,87.72
2022-10-16T21:11:11.500Z,91.20
2022-10-16T21:13:38.685Z,87.63
2022-10-16T21:16:06.068Z,88.53
2022-10-16T21:18:33.217Z,89.25
2022-10-16T21:20:59.988Z,93.78
2022-10-16T21:23:27.093Z,95.22
2022-10-16T21:25:53.933Z,88.90
2022-10-16T21:28:20.932Z,99.43
2022-10-16T21:30:47.737Z,91.32
2022-10-16T21:33:14.518Z,92.10
2022-10-16T21:35:41.234Z,90.18
2022-10-16T21:38:08.002Z,100.90
2022-10-16T21:40:34.972Z,97.07
2022-10-16T21:43:01.748Z,87.22
2022-10-16T21:45:28.555Z,94.57
2022-10-16T21:47:58.217Z,91.07
2022-10-16T21:50:24.994Z,90.93
2022-10-16T21:52:51.866Z,96.65
2022-10-16T21:55:18.642Z,91.97
2022-10-16T21:57:45.392Z,93.88
2022-10-16T22:00:12.668Z,88.90
2022-10-16T22:02:39.486Z,96.95
2022-10-16T22:05:06.478Z,87.13
2022-10-16T22:07:33.265Z,93.32
2022-10-16T22:10:00.028Z,89.35
2022-10-16T22:12:26.976Z,92.32
2022-10-16T22:14:53.750Z,93.47
2022-10-16T22:17:20.609Z,95.63
2022-10-16T22:19:47.441Z,91.65
2022-10-16T22:22:14.245Z,102.82
2022-10-16T22:24:41.477Z,94.78
2022-10-16T22:27:08.333Z,88.50
2022-10-16T22:29:35.097Z,89.32
2022-10-16T22:32:01.858Z,88.63
2022-10-16T22:34:29.524Z,88.15
2022-10-16T22:36:56.279Z,92.25
2022-10-16T22:39:23.141Z,83.95
2022-10-16T22:41:49.939Z,90.65
2022-10-16T22:44:16.739Z,92.00
2022-10-16T22:46:43.544Z,96.10
2022-10-16T22:49:10.398Z,95.38
2022-10-16T22:51:37.352Z,95.03
2022-10-16T22:54:04.239Z,97.13
2022-10-16T22:56:30.932Z,94.65
2022-10-16T22:58:57.724Z,98.18
2022-10-16T23:01:30.939Z,94.95
2022-10-16T23:03:58.137Z,93.65
2022-10-16T23:06:25.210Z,97.63
2022-10-16T23:08:53.466Z,99.85
2022-10-16T23:11:20.987Z,97.15
2022-10-16T23:13:47.783Z,98.45
2022-10-16T23:16:17.218Z,102.28
2022-10-16T23:18:45.028Z,97.68
2022-10-16T23:21:16.703Z,100.18
2022-10-16T23:23:44.288Z,96.40
2022-10-16T23:26:12.959Z,95.72
2022-10-16T23:28:40.103Z,104.43
2022-10-16T23:31:07.917Z,96.63
2022-10-16T23:33:35.793Z,91.97
2022-10-16T23:36:07.725Z,102.43
2022-10-16T23:41:01.690Z,88.28
2022-10-16T23:43:28.437Z,98.13
2022-10-16T23:45:55.267Z,104.68
2022-10-16T23:48:22.049Z,98.57
2022-10-16T23:50:48.793Z,104.65
2022-10-16T23:53:16.434Z,99.57
2022-10-16T23:55:43.460Z,100.78
2022-10-16T23:58:10.384Z,99.50
